VUELOS DE BAJO NIVEL DESDE SUPERFICIE HASTA 24,000 PIES.

VALIDO DESDE 251200Z / 260000Z

SANTO DOMINGO FIR...PORT-AU-PRINCE FIR ISLANDS...SCT020 SCT080. ISOL SHRA. 17Z SCT025 SCT-BKN060. OCNL BKN020. TOP ABV FL240. WDLY SCT SHRA/TSRA. OTLK...VFR TSRA BECM 04Z VFR.

WTRS...SCT025 SCT060. LYRS OCNL BKN TOP 150. WDLY SCT SHRA/ISOL TSRA. OTLK...VFR SHRA TSRA.

 

 

5,000 FT.

10,000 FT.

18,000 FT.

24,000 FT.

MDSD

1210KT+18ºC

0910KT+10ºC

1010KT-06ºC

1210KT-17ºC

MTPP

1210KT+18ºC

0910KT+10ºC

1010KT-06ºC

1210KT-17ºC

TJSJ

1215KT+19ºC

1415KT+08ºC

0810KT-06ºC

0910KT-17ºC

 

 

 

 

 

TAF

TAF MDPP 251000Z 2512/2612  00000KT 9999 BKN016 PROB30 2512/2518 7000 -RA FEW014CB BKN016 BKN070= 

TAF MDST 251000Z 2512/2612 13005KT 9999 SCT016 SCT300 PROB30 2512/2518 7000 -RA FEW016CB SCT018 SCT300 BECMG 2516/2518 13018KT=

TAF MDPC 251000Z 2512/2612  07010KT 9999 FEW016CB SCT018 SCT300 PROB30 2512/2518 8000 VCSHRA FEW016CB BKN018 TEMPO 2518/2600 6000 TSRA FEW014CB BKN015 SCT070=

TAF MDBH 251000Z 2512/2612  13016KT 9999 FEW018CB SCT020 SCT100 PROB30 2517/2521 8000- RA FEW016CB SCT018 BKN080=

TAF MDJB 251000Z 2512/2612  06008KT 9999 BKN018 PROB30 2515/2521 7000 -TSRA FEW014CB BKN016 SCT070 BECMG 2518/2520 18010KT=

TAF MDSD 251000Z 2512/2612  06008KT 9999  FEW016CB SCT018  SCT300 BECMG 2515/2517 15014KT PROB30  2516/2521 7000 -TSRA FEW016CB BKN018 BKN070=

TAF MDLR 251000Z 2512/2612  09010KT 9999 SCT020  SCT070 PROB30 2515/2521 8000 –RA FEW014CB BKN016 SCT070 BECMG 2517/2519 13014KT=  

TAF MDCY 251000Z 2512/2612  09015KT 9999 FEW016CB BKN018  PROB30 2513/2517 8000 –TSRA FEW014CB BKN015 BKN070 TEMPO 2518/2521 6000 –TSRA FEW014CB BKN016 BKN070 BECMG 2523/2501 00000KT=

 

KMIA 250900Z 2509/2606 12008KT P6SM SCT020 SCT250 FM251400 12012KT P6SM FEW025 SCT050 BKN250 FM260100 10006KT P6SM SCT025 SCT250

 

KJFK 250838Z 2509/2612 32005KT P6SM FEW110 FM251500 25007KT P6SM FEW060 FEW250 FM251700 22008KT P6SM SCT080 FM252000 21012G18KT P6SM SCT080 FM252300 25015G21KT P6SM SCT060 FM260300 28011KT P6SM SCT060 FM261000 28007KT P6SM SKC

 

TJSJ 250531Z 2506/2606 10005KT P6SM VCSH FEW030 FM251300 08012KT P6SM SCT025 FM252200 09010KT P6SM VCSH SCT025 SCT040

 

MUHA 250500Z 2506/2606 09005KT 9000 FEW030 BECMG 2513/2515 15010KT TEMPO 2519/2523 3000 TSRA FEW018CB BKN020 BECMG 2602/2604 09005KT

 

TAF MUGM 2507/2607 32008KT 9999 FEW035 FEW280 QNH2994INS BECMG 2513/2515 13013KT 9999 FEW035 SCT100 SCT280 QNH2992INS FM260100 35010KT 9999 FEW030 SCT120 SCT300 QNH2999INS T25/2509Z T32/2518Z FN00170

 

TAF TNCC 250400Z 2506/2606 10015KT 9999 SCT018

 

MKJP 250515Z 2506/2606 35005KT 9999 FEW022 BECMG 2514/2516 14017KT SCT020 SCT032 BECMG 2600/2602 35005KT FEW024

HATY MOTA

25 DE JUNIO DEL 2017.